sensor_id;sensor_type;location;lat;lon;timestamp;P1;durP1;ratioP1;P2;durP2;ratioP2
50066;SDS011;35952;52.524;13.340;2024-02-21T00:00:44;21.63;;;8.43;;
50066;SDS011;35952;52.524;13.340;2024-02-21T00:03:10;22.50;;;11.60;;
50066;SDS011;35952;52.524;13.340;2024-02-21T00:05:36;24.67;;;10.37;;
50066;SDS011;35952;52.524;13.340;2024-02-21T00:08:01;20.87;;;7.93;;
50066;SDS011;35952;52.524;13.340;2024-02-21T00:10:28;18.83;;;9.17;;
50066;SDS011;35952;52.524;13.340;2024-02-21T00:12:53;22.87;;;8.53;;
50066;SDS011;35952;52.524;13.340;2024-02-21T00:15:19;18.80;;;9.37;;
50066;SDS011;35952;52.524;13.340;2024-02-21T00:17:46;22.23;;;8.93;;
50066;SDS011;35952;52.524;13.340;2024-02-21T00:20:11;10.30;;;7.57;;
50066;SDS011;35952;52.524;13.340;2024-02-21T00:22:37;19.47;;;7.90;;
50066;SDS011;35952;52.524;13.340;2024-02-21T00:25:03;18.60;;;8.97;;
50066;SDS011;35952;52.524;13.340;2024-02-21T00:27:28;12.90;;;7.73;;
50066;SDS011;35952;52.524;13.340;2024-02-21T00:29:54;20.47;;;8.17;;
50066;SDS011;35952;52.524;13.340;2024-02-21T00:32:19;14.87;;;8.20;;
50066;SDS011;35952;52.524;13.340;2024-02-21T00:34:45;15.13;;;7.70;;
50066;SDS011;35952;52.524;13.340;2024-02-21T00:37:11;25.97;;;6.63;;
50066;SDS011;35952;52.524;13.340;2024-02-21T00:39:36;15.93;;;8.50;;
50066;SDS011;35952;52.524;13.340;2024-02-21T00:42:02;19.03;;;8.67;;
50066;SDS011;35952;52.524;13.340;2024-02-21T00:44:28;15.60;;;7.80;;
50066;SDS011;35952;52.524;13.340;2024-02-21T00:46:53;12.17;;;7.90;;
50066;SDS011;35952;52.524;13.340;2024-02-21T00:49:19;18.30;;;7.37;;
50066;SDS011;35952;52.524;13.340;2024-02-21T00:51:44;16.60;;;8.30;;
50066;SDS011;35952;52.524;13.340;2024-02-21T00:54:10;16.20;;;7.63;;
50066;SDS011;35952;52.524;13.340;2024-02-21T00:56:35;22.43;;;7.30;;
50066;SDS011;35952;52.524;13.340;2024-02-21T00:59:01;13.80;;;6.97;;
50066;SDS011;35952;52.524;13.340;2024-02-21T01:01:27;18.43;;;7.80;;
50066;SDS011;35952;52.524;13.340;2024-02-21T01:03:52;15.63;;;8.07;;
50066;SDS011;35952;52.524;13.340;2024-02-21T01:06:21;15.73;;;8.27;;
50066;SDS011;35952;52.524;13.340;2024-02-21T01:08:47;18.30;;;6.60;;
50066;SDS011;35952;52.524;13.340;2024-02-21T01:11:13;12.23;;;7.33;;
50066;SDS011;35952;52.524;13.340;2024-02-21T01:13:38;19.43;;;7.63;;
50066;SDS011;35952;52.524;13.340;2024-02-21T01:16:04;16.10;;;6.80;;
50066;SDS011;35952;52.524;13.340;2024-02-21T01:18:31;15.43;;;8.07;;
50066;SDS011;35952;52.524;13.340;2024-02-21T01:20:57;14.80;;;6.90;;
50066;SDS011;35952;52.524;13.340;2024-02-21T01:23:23;24.10;;;9.13;;
50066;SDS011;35952;52.524;13.340;2024-02-21T01:25:48;15.53;;;7.63;;
50066;SDS011;35952;52.524;13.340;2024-02-21T01:28:14;11.13;;;7.33;;
50066;SDS011;35952;52.524;13.340;2024-02-21T01:30:40;12.03;;;6.33;;
50066;SDS011;35952;52.524;13.340;2024-02-21T01:33:05;11.70;;;6.70;;
50066;SDS011;35952;52.524;13.340;2024-02-21T01:35:31;13.57;;;7.00;;
50066;SDS011;35952;52.524;13.340;2024-02-21T01:37:56;19.33;;;6.87;;
50066;SDS011;35952;52.524;13.340;2024-02-21T01:40:21;15.53;;;6.57;;
50066;SDS011;35952;52.524;13.340;2024-02-21T01:42:47;14.13;;;6.80;;
50066;SDS011;35952;52.524;13.340;2024-02-21T01:45:13;12.90;;;6.47;;
50066;SDS011;35952;52.524;13.340;2024-02-21T01:47:39;18.17;;;7.23;;
50066;SDS011;35952;52.524;13.340;2024-02-21T01:50:05;14.53;;;7.60;;
50066;SDS011;35952;52.524;13.340;2024-02-21T01:52:31;19.03;;;6.70;;
50066;SDS011;35952;52.524;13.340;2024-02-21T01:54:58;16.50;;;7.60;;
50066;SDS011;35952;52.524;13.340;2024-02-21T01:57:24;8.20;;;6.00;;
50066;SDS011;35952;52.524;13.340;2024-02-21T01:59:50;15.03;;;7.07;;
50066;SDS011;35952;52.524;13.340;2024-02-21T02:02:15;17.10;;;6.43;;
50066;SDS011;35952;52.524;13.340;2024-02-21T02:04:42;9.77;;;6.20;;
50066;SDS011;35952;52.524;13.340;2024-02-21T02:07:08;13.40;;;7.23;;
50066;SDS011;35952;52.524;13.340;2024-02-21T02:09:34;19.57;;;7.40;;
50066;SDS011;35952;52.524;13.340;2024-02-21T02:12:00;13.90;;;7.30;;
50066;SDS011;35952;52.524;13.340;2024-02-21T02:14:26;18.77;;;6.00;;
50066;SDS011;35952;52.524;13.340;2024-02-21T02:16:52;16.23;;;7.30;;
50066;SDS011;35952;52.524;13.340;2024-02-21T02:19:17;16.43;;;5.77;;
50066;SDS011;35952;52.524;13.340;2024-02-21T02:21:46;18.80;;;7.13;;
50066;SDS011;35952;52.524;13.340;2024-02-21T02:24:18;12.90;;;5.87;;
50066;SDS011;35952;52.524;13.340;2024-02-21T02:26:44;20.20;;;6.93;;
50066;SDS011;35952;52.524;13.340;2024-02-21T02:29:10;12.70;;;7.23;;
50066;SDS011;35952;52.524;13.340;2024-02-21T02:31:36;15.80;;;7.73;;
50066;SDS011;35952;52.524;13.340;2024-02-21T02:34:02;12.70;;;6.53;;
50066;SDS011;35952;52.524;13.340;2024-02-21T02:36:29;12.57;;;6.50;;
50066;SDS011;35952;52.524;13.340;2024-02-21T02:38:56;17.20;;;6.00;;
50066;SDS011;35952;52.524;13.340;2024-02-21T02:41:22;17.20;;;6.27;;
50066;SDS011;35952;52.524;13.340;2024-02-21T02:43:47;13.73;;;6.73;;
50066;SDS011;35952;52.524;13.340;2024-02-21T02:46:13;11.70;;;6.80;;
50066;SDS011;35952;52.524;13.340;2024-02-21T02:48:38;20.57;;;6.83;;
50066;SDS011;35952;52.524;13.340;2024-02-21T02:51:04;13.33;;;7.03;;
50066;SDS011;35952;52.524;13.340;2024-02-21T02:53:29;19.63;;;7.77;;
50066;SDS011;35952;52.524;13.340;2024-02-21T02:55:55;17.30;;;6.93;;
50066;SDS011;35952;52.524;13.340;2024-02-21T02:58:20;10.93;;;6.40;;
50066;SDS011;35952;52.524;13.340;2024-02-21T03:00:46;15.30;;;7.77;;
50066;SDS011;35952;52.524;13.340;2024-02-21T03:03:12;16.67;;;7.37;;
50066;SDS011;35952;52.524;13.340;2024-02-21T03:05:37;11.40;;;6.60;;
50066;SDS011;35952;52.524;13.340;2024-02-21T03:08:03;15.93;;;8.00;;
50066;SDS011;35952;52.524;13.340;2024-02-21T03:10:31;17.20;;;7.50;;
50066;SDS011;35952;52.524;13.340;2024-02-21T03:12:57;17.47;;;7.80;;
50066;SDS011;35952;52.524;13.340;2024-02-21T03:15:23;15.63;;;7.57;;
50066;SDS011;35952;52.524;13.340;2024-02-21T03:17:49;11.40;;;6.30;;
50066;SDS011;35952;52.524;13.340;2024-02-21T03:20:15;13.77;;;7.30;;
50066;SDS011;35952;52.524;13.340;2024-02-21T03:22:41;16.30;;;7.90;;
50066;SDS011;35952;52.524;13.340;2024-02-21T03:25:06;17.90;;;8.37;;
50066;SDS011;35952;52.524;13.340;2024-02-21T03:27:33;14.90;;;7.07;;
50066;SDS011;35952;52.524;13.340;2024-02-21T03:29:59;14.13;;;7.60;;
50066;SDS011;35952;52.524;13.340;2024-02-21T03:32:24;13.43;;;7.73;;
50066;SDS011;35952;52.524;13.340;2024-02-21T03:34:50;17.73;;;9.07;;
50066;SDS011;35952;52.524;13.340;2024-02-21T03:37:15;15.07;;;7.00;;
50066;SDS011;35952;52.524;13.340;2024-02-21T03:39:41;15.17;;;7.40;;
50066;SDS011;35952;52.524;13.340;2024-02-21T03:42:06;12.27;;;7.70;;
50066;SDS011;35952;52.524;13.340;2024-02-21T03:44:32;12.73;;;7.37;;
50066;SDS011;35952;52.524;13.340;2024-02-21T03:46:58;15.33;;;7.73;;
50066;SDS011;35952;52.524;13.340;2024-02-21T03:49:25;17.10;;;8.90;;
50066;SDS011;35952;52.524;13.340;2024-02-21T03:51:50;19.20;;;8.43;;
50066;SDS011;35952;52.524;13.340;2024-02-21T03:54:16;14.37;;;9.30;;
50066;SDS011;35952;52.524;13.340;2024-02-21T03:56:41;18.13;;;8.47;;
50066;SDS011;35952;52.524;13.340;2024-02-21T03:59:07;21.83;;;10.27;;
50066;SDS011;35952;52.524;13.340;2024-02-21T04:01:33;17.13;;;9.07;;
50066;SDS011;35952;52.524;13.340;2024-02-21T04:03:59;17.73;;;10.10;;
50066;SDS011;35952;52.524;13.340;2024-02-21T04:06:24;22.00;;;8.83;;
50066;SDS011;35952;52.524;13.340;2024-02-21T04:08:50;19.87;;;8.40;;
50066;SDS011;35952;52.524;13.340;2024-02-21T04:11:15;19.37;;;10.00;;
50066;SDS011;35952;52.524;13.340;2024-02-21T04:13:42;16.27;;;8.73;;
50066;SDS011;35952;52.524;13.340;2024-02-21T04:16:08;17.90;;;8.57;;
50066;SDS011;35952;52.524;13.340;2024-02-21T04:18:33;17.37;;;8.70;;
50066;SDS011;35952;52.524;13.340;2024-02-21T04:20:59;14.37;;;7.13;;
50066;SDS011;35952;52.524;13.340;2024-02-21T04:23:24;19.10;;;8.13;;
50066;SDS011;35952;52.524;13.340;2024-02-21T04:25:49;16.80;;;9.27;;
50066;SDS011;35952;52.524;13.340;2024-02-21T04:28:15;18.10;;;9.60;;
50066;SDS011;35952;52.524;13.340;2024-02-21T04:30:40;17.50;;;9.03;;
50066;SDS011;35952;52.524;13.340;2024-02-21T04:33:06;18.63;;;8.87;;
50066;SDS011;35952;52.524;13.340;2024-02-21T04:35:31;18.90;;;11.40;;
50066;SDS011;35952;52.524;13.340;2024-02-21T04:37:57;19.50;;;8.63;;
50066;SDS011;35952;52.524;13.340;2024-02-21T04:40:23;24.37;;;8.50;;
50066;SDS011;35952;52.524;13.340;2024-02-21T04:42:48;14.43;;;7.90;;
50066;SDS011;35952;52.524;13.340;2024-02-21T04:45:13;18.80;;;7.97;;
50066;SDS011;35952;52.524;13.340;2024-02-21T04:47:39;13.63;;;8.63;;
50066;SDS011;35952;52.524;13.340;2024-02-21T04:50:05;15.00;;;8.77;;
50066;SDS011;35952;52.524;13.340;2024-02-21T04:52:31;14.20;;;9.23;;
50066;SDS011;35952;52.524;13.340;2024-02-21T04:54:56;18.03;;;9.13;;
50066;SDS011;35952;52.524;13.340;2024-02-21T04:57:21;20.67;;;9.37;;
50066;SDS011;35952;52.524;13.340;2024-02-21T04:59:47;18.27;;;9.50;;
50066;SDS011;35952;52.524;13.340;2024-02-21T05:02:13;15.60;;;7.47;;
50066;SDS011;35952;52.524;13.340;2024-02-21T05:04:39;13.63;;;8.10;;
50066;SDS011;35952;52.524;13.340;2024-02-21T05:07:06;16.30;;;8.27;;
50066;SDS011;35952;52.524;13.340;2024-02-21T05:09:32;14.80;;;7.70;;
50066;SDS011;35952;52.524;13.340;2024-02-21T05:11:57;18.90;;;8.47;;
50066;SDS011;35952;52.524;13.340;2024-02-21T05:14:26;14.33;;;8.20;;
50066;SDS011;35952;52.524;13.340;2024-02-21T05:16:54;14.03;;;9.27;;
50066;SDS011;35952;52.524;13.340;2024-02-21T05:19:20;13.43;;;7.43;;
50066;SDS011;35952;52.524;13.340;2024-02-21T05:21:45;17.13;;;8.23;;
50066;SDS011;35952;52.524;13.340;2024-02-21T05:24:11;18.37;;;8.70;;
50066;SDS011;35952;52.524;13.340;2024-02-21T05:26:37;22.93;;;9.80;;
50066;SDS011;35952;52.524;13.340;2024-02-21T05:29:02;13.73;;;7.53;;
50066;SDS011;35952;52.524;13.340;2024-02-21T05:31:43;20.57;;;8.73;;
50066;SDS011;35952;52.524;13.340;2024-02-21T05:34:17;16.40;;;8.30;;
50066;SDS011;35952;52.524;13.340;2024-02-21T05:36:42;21.67;;;9.47;;
50066;SDS011;35952;52.524;13.340;2024-02-21T05:39:08;14.67;;;9.37;;
50066;SDS011;35952;52.524;13.340;2024-02-21T05:41:34;14.80;;;8.33;;
50066;SDS011;35952;52.524;13.340;2024-02-21T05:43:59;14.60;;;9.60;;
50066;SDS011;35952;52.524;13.340;2024-02-21T05:46:25;19.07;;;9.90;;
50066;SDS011;35952;52.524;13.340;2024-02-21T05:48:50;20.33;;;9.03;;
50066;SDS011;35952;52.524;13.340;2024-02-21T05:51:16;17.10;;;8.67;;
50066;SDS011;35952;52.524;13.340;2024-02-21T05:53:41;15.53;;;9.70;;
50066;SDS011;35952;52.524;13.340;2024-02-21T05:56:13;15.77;;;9.10;;
50066;SDS011;35952;52.524;13.340;2024-02-21T05:58:39;16.43;;;7.93;;
50066;SDS011;35952;52.524;13.340;2024-02-21T06:01:05;16.53;;;9.33;;
50066;SDS011;35952;52.524;13.340;2024-02-21T06:03:34;18.63;;;9.73;;
50066;SDS011;35952;52.524;13.340;2024-02-21T06:06:00;19.90;;;10.20;;
50066;SDS011;35952;52.524;13.340;2024-02-21T06:08:26;22.40;;;9.60;;
50066;SDS011;35952;52.524;13.340;2024-02-21T06:10:51;18.63;;;11.50;;
50066;SDS011;35952;52.524;13.340;2024-02-21T06:13:19;20.17;;;9.80;;
50066;SDS011;35952;52.524;13.340;2024-02-21T06:15:51;18.30;;;11.20;;
50066;SDS011;35952;52.524;13.340;2024-02-21T06:18:17;17.70;;;10.10;;
50066;SDS011;35952;52.524;13.340;2024-02-21T06:20:43;14.53;;;9.07;;
50066;SDS011;35952;52.524;13.340;2024-02-21T06:23:08;14.03;;;9.53;;
50066;SDS011;35952;52.524;13.340;2024-02-21T06:25:34;15.77;;;10.37;;
50066;SDS011;35952;52.524;13.340;2024-02-21T06:27:59;22.27;;;11.07;;
50066;SDS011;35952;52.524;13.340;2024-02-21T06:30:25;21.63;;;10.70;;
50066;SDS011;35952;52.524;13.340;2024-02-21T06:32:51;35.90;;;19.03;;
50066;SDS011;35952;52.524;13.340;2024-02-21T06:35:17;20.80;;;11.53;;
50066;SDS011;35952;52.524;13.340;2024-02-21T06:37:43;19.80;;;11.57;;
50066;SDS011;35952;52.524;13.340;2024-02-21T06:40:10;20.00;;;11.23;;
50066;SDS011;35952;52.524;13.340;2024-02-21T06:42:36;23.47;;;10.40;;
50066;SDS011;35952;52.524;13.340;2024-02-21T06:45:01;17.83;;;10.97;;
50066;SDS011;35952;52.524;13.340;2024-02-21T06:47:27;24.13;;;11.83;;
50066;SDS011;35952;52.524;13.340;2024-02-21T06:49:52;19.63;;;12.07;;
50066;SDS011;35952;52.524;13.340;2024-02-21T06:52:18;23.53;;;11.80;;
50066;SDS011;35952;52.524;13.340;2024-02-21T06:54:47;17.80;;;9.73;;
50066;SDS011;35952;52.524;13.340;2024-02-21T06:57:13;17.67;;;10.30;;
50066;SDS011;35952;52.524;13.340;2024-02-21T06:59:39;21.33;;;11.70;;
50066;SDS011;35952;52.524;13.340;2024-02-21T07:02:05;25.90;;;12.20;;
50066;SDS011;35952;52.524;13.340;2024-02-21T07:04:30;16.57;;;10.23;;
50066;SDS011;35952;52.524;13.340;2024-02-21T07:06:56;18.67;;;11.07;;
50066;SDS011;35952;52.524;13.340;2024-02-21T07:09:22;17.10;;;10.17;;
50066;SDS011;35952;52.524;13.340;2024-02-21T07:11:47;18.50;;;10.93;;
50066;SDS011;35952;52.524;13.340;2024-02-21T07:14:14;15.47;;;11.10;;
50066;SDS011;35952;52.524;13.340;2024-02-21T07:16:40;17.40;;;10.70;;
50066;SDS011;35952;52.524;13.340;2024-02-21T07:19:05;19.80;;;11.53;;
50066;SDS011;35952;52.524;13.340;2024-02-21T07:21:31;23.90;;;12.80;;
50066;SDS011;35952;52.524;13.340;2024-02-21T07:23:57;19.93;;;12.77;;
50066;SDS011;35952;52.524;13.340;2024-02-21T07:26:22;18.23;;;13.30;;
50066;SDS011;35952;52.524;13.340;2024-02-21T07:28:48;24.63;;;15.30;;
50066;SDS011;35952;52.524;13.340;2024-02-21T07:31:13;22.97;;;12.37;;
50066;SDS011;35952;52.524;13.340;2024-02-21T07:33:39;26.43;;;12.13;;
50066;SDS011;35952;52.524;13.340;2024-02-21T07:36:09;18.90;;;11.57;;
50066;SDS011;35952;52.524;13.340;2024-02-21T07:38:35;20.23;;;12.00;;
50066;SDS011;35952;52.524;13.340;2024-02-21T07:41:01;16.60;;;10.70;;
50066;SDS011;35952;52.524;13.340;2024-02-21T07:43:27;15.93;;;9.90;;
50066;SDS011;35952;52.524;13.340;2024-02-21T07:45:53;13.43;;;9.83;;
50066;SDS011;35952;52.524;13.340;2024-02-21T07:48:18;16.67;;;11.40;;
50066;SDS011;35952;52.524;13.340;2024-02-21T07:50:44;24.90;;;13.20;;
50066;SDS011;35952;52.524;13.340;2024-02-21T07:53:10;25.93;;;16.87;;
50066;SDS011;35952;52.524;13.340;2024-02-21T07:55:35;13.50;;;9.90;;
50066;SDS011;35952;52.524;13.340;2024-02-21T07:58:01;14.73;;;10.23;;
50066;SDS011;35952;52.524;13.340;2024-02-21T08:00:26;14.63;;;9.27;;
50066;SDS011;35952;52.524;13.340;2024-02-21T08:02:52;15.70;;;9.67;;
50066;SDS011;35952;52.524;13.340;2024-02-21T08:05:17;19.43;;;9.43;;
50066;SDS011;35952;52.524;13.340;2024-02-21T08:07:43;17.77;;;9.83;;
50066;SDS011;35952;52.524;13.340;2024-02-21T08:10:09;17.63;;;10.63;;
50066;SDS011;35952;52.524;13.340;2024-02-21T08:12:35;17.10;;;8.00;;
50066;SDS011;35952;52.524;13.340;2024-02-21T08:15:00;16.93;;;9.97;;
50066;SDS011;35952;52.524;13.340;2024-02-21T08:17:28;17.17;;;9.23;;
50066;SDS011;35952;52.524;13.340;2024-02-21T08:19:53;15.17;;;9.60;;
50066;SDS011;35952;52.524;13.340;2024-02-21T08:22:19;15.40;;;9.60;;
50066;SDS011;35952;52.524;13.340;2024-02-21T08:24:44;15.27;;;9.03;;
50066;SDS011;35952;52.524;13.340;2024-02-21T08:27:10;16.73;;;9.43;;
50066;SDS011;35952;52.524;13.340;2024-02-21T08:29:36;19.47;;;11.40;;
50066;SDS011;35952;52.524;13.340;2024-02-21T08:32:01;18.00;;;9.30;;
50066;SDS011;35952;52.524;13.340;2024-02-21T08:34:27;15.87;;;9.87;;
50066;SDS011;35952;52.524;13.340;2024-02-21T08:36:54;17.20;;;10.77;;
50066;SDS011;35952;52.524;13.340;2024-02-21T08:39:20;13.63;;;9.03;;
50066;SDS011;35952;52.524;13.340;2024-02-21T08:41:46;21.30;;;10.10;;
50066;SDS011;35952;52.524;13.340;2024-02-21T08:44:11;12.40;;;9.20;;
50066;SDS011;35952;52.524;13.340;2024-02-21T08:46:37;15.40;;;11.03;;
50066;SDS011;35952;52.524;13.340;2024-02-21T08:49:05;16.47;;;10.10;;
50066;SDS011;35952;52.524;13.340;2024-02-21T08:51:31;20.10;;;11.70;;
50066;SDS011;35952;52.524;13.340;2024-02-21T08:54:03;17.10;;;10.10;;
50066;SDS011;35952;52.524;13.340;2024-02-21T08:56:30;14.17;;;10.13;;
50066;SDS011;35952;52.524;13.340;2024-02-21T08:58:56;24.03;;;10.90;;
50066;SDS011;35952;52.524;13.340;2024-02-21T09:01:22;18.60;;;9.57;;
50066;SDS011;35952;52.524;13.340;2024-02-21T09:03:48;15.40;;;11.00;;
50066;SDS011;35952;52.524;13.340;2024-02-21T09:06:18;16.63;;;11.30;;
50066;SDS011;35952;52.524;13.340;2024-02-21T09:08:44;22.47;;;10.70;;
50066;SDS011;35952;52.524;13.340;2024-02-21T09:11:10;18.80;;;11.33;;
50066;SDS011;35952;52.524;13.340;2024-02-21T09:13:36;18.43;;;11.33;;
50066;SDS011;35952;52.524;13.340;2024-02-21T09:16:01;19.43;;;11.43;;
50066;SDS011;35952;52.524;13.340;2024-02-21T09:18:27;22.60;;;12.60;;
50066;SDS011;35952;52.524;13.340;2024-02-21T09:20:52;19.33;;;10.13;;
50066;SDS011;35952;52.524;13.340;2024-02-21T09:23:17;34.70;;;19.33;;
50066;SDS011;35952;52.524;13.340;2024-02-21T09:25:44;24.87;;;10.93;;
50066;SDS011;35952;52.524;13.340;2024-02-21T09:28:10;16.23;;;10.40;;
50066;SDS011;35952;52.524;13.340;2024-02-21T09:30:38;18.53;;;9.83;;
50066;SDS011;35952;52.524;13.340;2024-02-21T09:33:04;17.77;;;11.97;;
50066;SDS011;35952;52.524;13.340;2024-02-21T09:35:30;19.60;;;12.07;;
50066;SDS011;35952;52.524;13.340;2024-02-21T09:37:55;16.67;;;11.07;;
50066;SDS011;35952;52.524;13.340;2024-02-21T09:40:21;17.20;;;10.00;;
50066;SDS011;35952;52.524;13.340;2024-02-21T09:42:47;16.90;;;11.33;;
50066;SDS011;35952;52.524;13.340;2024-02-21T09:45:16;23.20;;;14.60;;
50066;SDS011;35952;52.524;13.340;2024-02-21T09:47:52;22.07;;;13.20;;
50066;SDS011;35952;52.524;13.340;2024-02-21T09:50:41;19.57;;;10.40;;
50066;SDS011;35952;52.524;13.340;2024-02-21T09:53:09;14.20;;;10.10;;
50066;SDS011;35952;52.524;13.340;2024-02-21T09:55:38;19.33;;;11.00;;
50066;SDS011;35952;52.524;13.340;2024-02-21T09:58:05;21.53;;;11.13;;
50066;SDS011;35952;52.524;13.340;2024-02-21T10:00:37;20.80;;;11.07;;
50066;SDS011;35952;52.524;13.340;2024-02-21T10:03:03;26.40;;;12.40;;
50066;SDS011;35952;52.524;13.340;2024-02-21T10:05:34;22.37;;;11.83;;
50066;SDS011;35952;52.524;13.340;2024-02-21T10:08:00;18.17;;;10.70;;
50066;SDS011;35952;52.524;13.340;2024-02-21T10:10:26;18.57;;;12.33;;
50066;SDS011;35952;52.524;13.340;2024-02-21T10:12:52;15.47;;;11.10;;
50066;SDS011;35952;52.524;13.340;2024-02-21T10:15:23;18.67;;;12.57;;
50066;SDS011;35952;52.524;13.340;2024-02-21T10:17:50;19.20;;;10.80;;
50066;SDS011;35952;52.524;13.340;2024-02-21T10:20:23;19.00;;;11.93;;
50066;SDS011;35952;52.524;13.340;2024-02-21T10:22:49;21.57;;;10.67;;
50066;SDS011;35952;52.524;13.340;2024-02-21T10:25:38;18.07;;;10.70;;
50066;SDS011;35952;52.524;13.340;2024-02-21T10:28:06;22.07;;;12.00;;
50066;SDS011;35952;52.524;13.340;2024-02-21T10:30:32;13.50;;;10.30;;
50066;SDS011;35952;52.524;13.340;2024-02-21T10:32:57;15.60;;;10.80;;
50066;SDS011;35952;52.524;13.340;2024-02-21T10:35:30;14.10;;;10.50;;
50066;SDS011;35952;52.524;13.340;2024-02-21T10:37:57;16.63;;;12.80;;
50066;SDS011;35952;52.524;13.340;2024-02-21T10:40:24;14.67;;;9.93;;
50066;SDS011;35952;52.524;13.340;2024-02-21T10:42:52;13.50;;;8.97;;
50066;SDS011;35952;52.524;13.340;2024-02-21T10:45:31;18.10;;;13.70;;
50066;SDS011;35952;52.524;13.340;2024-02-21T10:51:18;12.30;;;10.67;;
50066;SDS011;35952;52.524;13.340;2024-02-21T10:56:37;13.10;;;10.20;;
50066;SDS011;35952;52.524;13.340;2024-02-21T10:59:05;14.57;;;8.83;;
50066;SDS011;35952;52.524;13.340;2024-02-21T11:01:31;13.60;;;9.80;;
50066;SDS011;35952;52.524;13.340;2024-02-21T11:03:58;15.93;;;9.30;;
50066;SDS011;35952;52.524;13.340;2024-02-21T11:06:26;15.33;;;9.63;;
50066;SDS011;35952;52.524;13.340;2024-02-21T11:09:03;14.83;;;9.87;;
50066;SDS011;35952;52.524;13.340;2024-02-21T11:11:30;13.23;;;8.50;;
50066;SDS011;35952;52.524;13.340;2024-02-21T11:14:06;22.23;;;16.63;;
50066;SDS011;35952;52.524;13.340;2024-02-21T11:16:36;11.27;;;9.50;;
50066;SDS011;35952;52.524;13.340;2024-02-21T11:19:25;10.80;;;9.00;;
50066;SDS011;35952;52.524;13.340;2024-02-21T11:21:50;13.50;;;9.47;;
50066;SDS011;35952;52.524;13.340;2024-02-21T11:24:29;14.80;;;8.70;;
50066;SDS011;35952;52.524;13.340;2024-02-21T11:27:18;11.73;;;9.40;;
50066;SDS011;35952;52.524;13.340;2024-02-21T11:29:45;10.23;;;8.57;;
50066;SDS011;35952;52.524;13.340;2024-02-21T11:32:15;15.70;;;9.87;;
50066;SDS011;35952;52.524;13.340;2024-02-21T11:34:52;10.97;;;9.77;;
50066;SDS011;35952;52.524;13.340;2024-02-21T11:37:23;11.37;;;8.20;;
50066;SDS011;35952;52.524;13.340;2024-02-21T11:39:52;14.53;;;8.53;;
50066;SDS011;35952;52.524;13.340;2024-02-21T11:42:18;10.87;;;7.80;;
50066;SDS011;35952;52.524;13.340;2024-02-21T11:44:43;10.83;;;7.70;;
50066;SDS011;35952;52.524;13.340;2024-02-21T11:47:09;9.67;;;7.80;;
50066;SDS011;35952;52.524;13.340;2024-02-21T11:49:36;10.83;;;7.20;;
50066;SDS011;35952;52.524;13.340;2024-02-21T11:52:10;10.30;;;6.90;;
50066;SDS011;35952;52.524;13.340;2024-02-21T11:54:36;10.93;;;8.07;;
50066;SDS011;35952;52.524;13.340;2024-02-21T11:57:01;13.60;;;7.47;;
50066;SDS011;35952;52.524;13.340;2024-02-21T11:59:32;7.87;;;6.70;;
50066;SDS011;35952;52.524;13.340;2024-02-21T12:02:01;9.67;;;6.93;;
50066;SDS011;35952;52.524;13.340;2024-02-21T12:04:29;13.03;;;7.67;;
50066;SDS011;35952;52.524;13.340;2024-02-21T12:06:56;11.13;;;7.00;;
50066;SDS011;35952;52.524;13.340;2024-02-21T12:09:23;10.00;;;7.47;;
50066;SDS011;35952;52.524;13.340;2024-02-21T12:11:56;9.33;;;8.07;;
50066;SDS011;35952;52.524;13.340;2024-02-21T12:14:24;9.47;;;6.70;;
50066;SDS011;35952;52.524;13.340;2024-02-21T12:16:50;8.70;;;7.63;;
50066;SDS011;35952;52.524;13.340;2024-02-21T12:19:16;10.13;;;6.97;;
50066;SDS011;35952;52.524;13.340;2024-02-21T12:21:42;9.20;;;7.40;;
50066;SDS011;35952;52.524;13.340;2024-02-21T12:24:15;13.67;;;7.43;;
50066;SDS011;35952;52.524;13.340;2024-02-21T12:26:40;9.10;;;7.60;;
50066;SDS011;35952;52.524;13.340;2024-02-21T12:29:06;10.00;;;7.67;;
50066;SDS011;35952;52.524;13.340;2024-02-21T12:31:34;11.20;;;7.57;;
50066;SDS011;35952;52.524;13.340;2024-02-21T12:34:03;36.97;;;23.87;;
50066;SDS011;35952;52.524;13.340;2024-02-21T12:36:32;9.80;;;6.93;;
50066;SDS011;35952;52.524;13.340;2024-02-21T12:39:00;9.20;;;7.40;;
50066;SDS011;35952;52.524;13.340;2024-02-21T12:41:29;7.00;;;6.10;;
50066;SDS011;35952;52.524;13.340;2024-02-21T12:43:57;8.30;;;6.53;;
50066;SDS011;35952;52.524;13.340;2024-02-21T12:46:22;9.27;;;5.93;;
50066;SDS011;35952;52.524;13.340;2024-02-21T12:48:48;7.60;;;6.10;;
50066;SDS011;35952;52.524;13.340;2024-02-21T12:51:14;9.20;;;6.23;;
50066;SDS011;35952;52.524;13.340;2024-02-21T12:53:40;6.63;;;5.67;;
50066;SDS011;35952;52.524;13.340;2024-02-21T12:56:06;8.83;;;5.90;;
50066;SDS011;35952;52.524;13.340;2024-02-21T12:58:32;9.70;;;6.10;;
50066;SDS011;35952;52.524;13.340;2024-02-21T13:00:58;6.67;;;5.90;;
50066;SDS011;35952;52.524;13.340;2024-02-21T13:03:23;8.10;;;6.13;;
50066;SDS011;35952;52.524;13.340;2024-02-21T13:05:49;7.87;;;5.93;;
50066;SDS011;35952;52.524;13.340;2024-02-21T13:08:14;7.60;;;5.90;;
50066;SDS011;35952;52.524;13.340;2024-02-21T13:10:40;8.90;;;5.23;;
50066;SDS011;35952;52.524;13.340;2024-02-21T13:13:05;6.13;;;5.53;;
50066;SDS011;35952;52.524;13.340;2024-02-21T13:15:31;9.60;;;5.90;;
50066;SDS011;35952;52.524;13.340;2024-02-21T13:17:57;6.30;;;5.70;;
50066;SDS011;35952;52.524;13.340;2024-02-21T13:20:23;9.27;;;6.47;;
50066;SDS011;35952;52.524;13.340;2024-02-21T13:22:50;8.53;;;7.40;;
50066;SDS011;35952;52.524;13.340;2024-02-21T13:25:16;8.57;;;5.40;;
50066;SDS011;35952;52.524;13.340;2024-02-21T13:27:43;6.80;;;5.27;;
50066;SDS011;35952;52.524;13.340;2024-02-21T13:30:09;9.83;;;5.57;;
50066;SDS011;35952;52.524;13.340;2024-02-21T13:32:35;8.93;;;6.03;;
50066;SDS011;35952;52.524;13.340;2024-02-21T13:35:01;7.40;;;6.00;;
50066;SDS011;35952;52.524;13.340;2024-02-21T13:37:28;7.17;;;5.60;;
50066;SDS011;35952;52.524;13.340;2024-02-21T13:39:53;6.50;;;4.60;;
50066;SDS011;35952;52.524;13.340;2024-02-21T13:42:19;7.37;;;5.53;;
50066;SDS011;35952;52.524;13.340;2024-02-21T13:44:45;8.30;;;6.00;;
50066;SDS011;35952;52.524;13.340;2024-02-21T13:47:12;10.77;;;5.90;;
50066;SDS011;35952;52.524;13.340;2024-02-21T13:49:39;10.03;;;6.10;;
50066;SDS011;35952;52.524;13.340;2024-02-21T13:52:04;10.47;;;6.47;;
50066;SDS011;35952;52.524;13.340;2024-02-21T13:54:30;6.00;;;5.50;;
50066;SDS011;35952;52.524;13.340;2024-02-21T13:56:56;10.23;;;7.00;;
50066;SDS011;35952;52.524;13.340;2024-02-21T13:59:21;7.70;;;5.47;;
50066;SDS011;35952;52.524;13.340;2024-02-21T14:01:47;9.03;;;6.30;;
50066;SDS011;35952;52.524;13.340;2024-02-21T14:04:12;9.50;;;5.80;;
50066;SDS011;35952;52.524;13.340;2024-02-21T14:06:37;9.77;;;6.60;;
50066;SDS011;35952;52.524;13.340;2024-02-21T14:09:08;7.47;;;5.57;;
50066;SDS011;35952;52.524;13.340;2024-02-21T14:11:34;9.43;;;5.47;;
50066;SDS011;35952;52.524;13.340;2024-02-21T14:13:59;8.13;;;5.47;;
50066;SDS011;35952;52.524;13.340;2024-02-21T14:16:25;5.87;;;5.20;;
50066;SDS011;35952;52.524;13.340;2024-02-21T14:18:51;8.40;;;5.37;;
50066;SDS011;35952;52.524;13.340;2024-02-21T14:21:16;5.47;;;4.87;;
50066;SDS011;35952;52.524;13.340;2024-02-21T14:23:42;6.07;;;5.30;;